sensor_id;sensor_type;location;lat;lon;timestamp;P1;durP1;ratioP1;P2;durP2;ratioP2
25752;SDS011;13600;50.816;4.416;2024-01-30T00:01:50;9.98;;;5.30;;
25752;SDS011;13600;50.816;4.416;2024-01-30T00:04:16;8.90;;;5.53;;
25752;SDS011;13600;50.816;4.416;2024-01-30T00:06:43;8.48;;;5.22;;
25752;SDS011;13600;50.816;4.416;2024-01-30T00:09:08;10.05;;;5.57;;
25752;SDS011;13600;50.816;4.416;2024-01-30T00:11:35;9.38;;;5.07;;
25752;SDS011;13600;50.816;4.416;2024-01-30T00:14:04;8.13;;;5.40;;
25752;SDS011;13600;50.816;4.416;2024-01-30T00:16:30;8.95;;;5.30;;
25752;SDS011;13600;50.816;4.416;2024-01-30T00:18:56;9.68;;;5.43;;
25752;SDS011;13600;50.816;4.416;2024-01-30T00:21:22;12.57;;;5.22;;
25752;SDS011;13600;50.816;4.416;2024-01-30T00:23:49;8.52;;;5.65;;
25752;SDS011;13600;50.816;4.416;2024-01-30T00:26:15;9.35;;;5.30;;
25752;SDS011;13600;50.816;4.416;2024-01-30T00:28:41;10.90;;;5.90;;
25752;SDS011;13600;50.816;4.416;2024-01-30T00:31:07;12.35;;;5.40;;
25752;SDS011;13600;50.816;4.416;2024-01-30T00:33:33;12.13;;;5.47;;
25752;SDS011;13600;50.816;4.416;2024-01-30T00:35:58;7.88;;;5.32;;
25752;SDS011;13600;50.816;4.416;2024-01-30T00:38:24;10.07;;;4.95;;
25752;SDS011;13600;50.816;4.416;2024-01-30T00:40:50;8.98;;;5.35;;
25752;SDS011;13600;50.816;4.416;2024-01-30T00:43:15;8.38;;;4.95;;
25752;SDS011;13600;50.816;4.416;2024-01-30T00:45:43;8.63;;;5.20;;
25752;SDS011;13600;50.816;4.416;2024-01-30T00:48:09;9.20;;;5.22;;
25752;SDS011;13600;50.816;4.416;2024-01-30T00:50:35;11.45;;;5.30;;
25752;SDS011;13600;50.816;4.416;2024-01-30T00:53:00;11.30;;;5.15;;
25752;SDS011;13600;50.816;4.416;2024-01-30T00:55:26;9.48;;;5.38;;
25752;SDS011;13600;50.816;4.416;2024-01-30T00:57:52;10.15;;;5.40;;
25752;SDS011;13600;50.816;4.416;2024-01-30T01:00:17;10.95;;;6.15;;
25752;SDS011;13600;50.816;4.416;2024-01-30T01:02:44;8.90;;;5.60;;
25752;SDS011;13600;50.816;4.416;2024-01-30T01:05:10;8.55;;;5.40;;
25752;SDS011;13600;50.816;4.416;2024-01-30T01:07:36;8.85;;;5.45;;
25752;SDS011;13600;50.816;4.416;2024-01-30T01:10:01;9.48;;;5.28;;
25752;SDS011;13600;50.816;4.416;2024-01-30T01:12:27;9.77;;;5.10;;
25752;SDS011;13600;50.816;4.416;2024-01-30T01:14:53;9.23;;;5.72;;
25752;SDS011;13600;50.816;4.416;2024-01-30T01:17:19;10.05;;;5.60;;
25752;SDS011;13600;50.816;4.416;2024-01-30T01:19:44;8.93;;;5.45;;
25752;SDS011;13600;50.816;4.416;2024-01-30T01:22:10;9.07;;;4.93;;
25752;SDS011;13600;50.816;4.416;2024-01-30T01:24:36;9.63;;;5.20;;
25752;SDS011;13600;50.816;4.416;2024-01-30T01:27:02;10.40;;;5.28;;
25752;SDS011;13600;50.816;4.416;2024-01-30T01:29:28;10.70;;;5.43;;
25752;SDS011;13600;50.816;4.416;2024-01-30T01:31:57;9.57;;;5.30;;
25752;SDS011;13600;50.816;4.416;2024-01-30T01:34:23;8.05;;;4.97;;
25752;SDS011;13600;50.816;4.416;2024-01-30T01:36:49;10.00;;;4.90;;
25752;SDS011;13600;50.816;4.416;2024-01-30T01:39:18;7.22;;;4.43;;
25752;SDS011;13600;50.816;4.416;2024-01-30T01:41:44;8.98;;;5.10;;
25752;SDS011;13600;50.816;4.416;2024-01-30T01:44:10;9.95;;;5.43;;
25752;SDS011;13600;50.816;4.416;2024-01-30T01:46:36;8.60;;;4.72;;
25752;SDS011;13600;50.816;4.416;2024-01-30T01:49:02;9.48;;;5.28;;
25752;SDS011;13600;50.816;4.416;2024-01-30T01:51:29;9.75;;;4.88;;
25752;SDS011;13600;50.816;4.416;2024-01-30T01:53:57;8.45;;;4.95;;
25752;SDS011;13600;50.816;4.416;2024-01-30T01:56:26;7.40;;;4.50;;
25752;SDS011;13600;50.816;4.416;2024-01-30T01:58:53;9.77;;;4.68;;
25752;SDS011;13600;50.816;4.416;2024-01-30T02:01:21;12.65;;;5.68;;
25752;SDS011;13600;50.816;4.416;2024-01-30T02:03:48;9.35;;;5.20;;
25752;SDS011;13600;50.816;4.416;2024-01-30T02:06:14;9.55;;;4.93;;
25752;SDS011;13600;50.816;4.416;2024-01-30T02:08:41;7.95;;;5.25;;
25752;SDS011;13600;50.816;4.416;2024-01-30T02:11:07;8.30;;;4.88;;
25752;SDS011;13600;50.816;4.416;2024-01-30T02:13:34;9.35;;;4.80;;
25752;SDS011;13600;50.816;4.416;2024-01-30T02:15:59;8.30;;;4.88;;
25752;SDS011;13600;50.816;4.416;2024-01-30T02:18:26;8.93;;;5.00;;
25752;SDS011;13600;50.816;4.416;2024-01-30T02:20:53;9.98;;;5.30;;
25752;SDS011;13600;50.816;4.416;2024-01-30T02:23:21;7.72;;;5.03;;
25752;SDS011;13600;50.816;4.416;2024-01-30T02:25:49;11.40;;;4.95;;
25752;SDS011;13600;50.816;4.416;2024-01-30T02:28:18;9.57;;;5.00;;
25752;SDS011;13600;50.816;4.416;2024-01-30T02:30:44;7.97;;;4.45;;
25752;SDS011;13600;50.816;4.416;2024-01-30T02:33:11;7.60;;;4.45;;
25752;SDS011;13600;50.816;4.416;2024-01-30T02:35:37;9.52;;;4.75;;
25752;SDS011;13600;50.816;4.416;2024-01-30T02:38:02;7.32;;;4.90;;
25752;SDS011;13600;50.816;4.416;2024-01-30T02:40:28;8.40;;;5.28;;
25752;SDS011;13600;50.816;4.416;2024-01-30T02:42:54;9.65;;;5.22;;
25752;SDS011;13600;50.816;4.416;2024-01-30T02:45:19;7.28;;;4.50;;
25752;SDS011;13600;50.816;4.416;2024-01-30T02:47:45;8.32;;;5.07;;
25752;SDS011;13600;50.816;4.416;2024-01-30T02:50:11;9.80;;;4.72;;
25752;SDS011;13600;50.816;4.416;2024-01-30T02:52:37;11.07;;;4.93;;
25752;SDS011;13600;50.816;4.416;2024-01-30T02:55:03;7.68;;;4.82;;
25752;SDS011;13600;50.816;4.416;2024-01-30T02:57:29;6.43;;;4.32;;
25752;SDS011;13600;50.816;4.416;2024-01-30T02:59:54;10.27;;;5.10;;
25752;SDS011;13600;50.816;4.416;2024-01-30T03:02:20;10.98;;;4.93;;
25752;SDS011;13600;50.816;4.416;2024-01-30T03:04:46;8.23;;;4.57;;
25752;SDS011;13600;50.816;4.416;2024-01-30T03:07:12;9.23;;;5.07;;
25752;SDS011;13600;50.816;4.416;2024-01-30T03:09:38;10.45;;;4.90;;
25752;SDS011;13600;50.816;4.416;2024-01-30T03:12:06;10.05;;;5.10;;
25752;SDS011;13600;50.816;4.416;2024-01-30T03:14:31;9.55;;;5.13;;
25752;SDS011;13600;50.816;4.416;2024-01-30T03:16:57;8.82;;;4.60;;
25752;SDS011;13600;50.816;4.416;2024-01-30T03:19:23;8.15;;;5.13;;
25752;SDS011;13600;50.816;4.416;2024-01-30T03:21:49;10.63;;;4.80;;
25752;SDS011;13600;50.816;4.416;2024-01-30T03:24:15;8.88;;;5.10;;
25752;SDS011;13600;50.816;4.416;2024-01-30T03:26:40;7.53;;;4.63;;
25752;SDS011;13600;50.816;4.416;2024-01-30T03:29:06;11.23;;;5.13;;
25752;SDS011;13600;50.816;4.416;2024-01-30T03:31:32;8.93;;;5.07;;
25752;SDS011;13600;50.816;4.416;2024-01-30T03:33:58;7.93;;;4.85;;
25752;SDS011;13600;50.816;4.416;2024-01-30T03:36:24;8.82;;;5.07;;
25752;SDS011;13600;50.816;4.416;2024-01-30T03:38:49;9.98;;;4.57;;
25752;SDS011;13600;50.816;4.416;2024-01-30T03:41:15;9.48;;;4.95;;
25752;SDS011;13600;50.816;4.416;2024-01-30T03:43:40;9.48;;;4.50;;
25752;SDS011;13600;50.816;4.416;2024-01-30T03:46:06;6.88;;;4.63;;
25752;SDS011;13600;50.816;4.416;2024-01-30T03:48:32;20.80;;;15.48;;
25752;SDS011;13600;50.816;4.416;2024-01-30T03:50:57;10.32;;;5.00;;
25752;SDS011;13600;50.816;4.416;2024-01-30T03:53:23;9.77;;;5.30;;
25752;SDS011;13600;50.816;4.416;2024-01-30T03:55:49;9.30;;;4.85;;
25752;SDS011;13600;50.816;4.416;2024-01-30T03:58:15;11.18;;;5.15;;
25752;SDS011;13600;50.816;4.416;2024-01-30T04:00:40;10.02;;;5.25;;
25752;SDS011;13600;50.816;4.416;2024-01-30T04:03:06;11.90;;;4.90;;
25752;SDS011;13600;50.816;4.416;2024-01-30T04:05:32;9.93;;;5.30;;
25752;SDS011;13600;50.816;4.416;2024-01-30T04:07:58;12.43;;;5.47;;
25752;SDS011;13600;50.816;4.416;2024-01-30T04:10:24;13.43;;;5.55;;
25752;SDS011;13600;50.816;4.416;2024-01-30T04:12:50;11.20;;;5.43;;
25752;SDS011;13600;50.816;4.416;2024-01-30T04:15:16;12.18;;;5.35;;
25752;SDS011;13600;50.816;4.416;2024-01-30T04:17:43;9.23;;;5.15;;
25752;SDS011;13600;50.816;4.416;2024-01-30T04:20:13;8.23;;;5.30;;
25752;SDS011;13600;50.816;4.416;2024-01-30T04:22:45;9.60;;;5.43;;
25752;SDS011;13600;50.816;4.416;2024-01-30T04:25:12;11.13;;;5.13;;
25752;SDS011;13600;50.816;4.416;2024-01-30T04:27:38;12.18;;;5.75;;
25752;SDS011;13600;50.816;4.416;2024-01-30T04:30:04;11.30;;;5.43;;
25752;SDS011;13600;50.816;4.416;2024-01-30T04:32:30;11.32;;;5.35;;
25752;SDS011;13600;50.816;4.416;2024-01-30T04:34:55;12.20;;;5.60;;
25752;SDS011;13600;50.816;4.416;2024-01-30T04:37:21;11.05;;;5.45;;
25752;SDS011;13600;50.816;4.416;2024-01-30T04:39:47;8.13;;;5.65;;
25752;SDS011;13600;50.816;4.416;2024-01-30T04:42:12;10.82;;;5.85;;
25752;SDS011;13600;50.816;4.416;2024-01-30T04:44:38;10.93;;;5.80;;
25752;SDS011;13600;50.816;4.416;2024-01-30T04:47:04;11.07;;;5.53;;
25752;SDS011;13600;50.816;4.416;2024-01-30T04:49:31;9.68;;;5.35;;
25752;SDS011;13600;50.816;4.416;2024-01-30T04:51:57;9.77;;;5.60;;
25752;SDS011;13600;50.816;4.416;2024-01-30T04:54:23;9.82;;;6.00;;
25752;SDS011;13600;50.816;4.416;2024-01-30T04:56:48;9.68;;;5.70;;
25752;SDS011;13600;50.816;4.416;2024-01-30T04:59:14;10.35;;;5.72;;
25752;SDS011;13600;50.816;4.416;2024-01-30T05:01:40;12.27;;;5.68;;
25752;SDS011;13600;50.816;4.416;2024-01-30T05:04:08;10.85;;;5.93;;
25752;SDS011;13600;50.816;4.416;2024-01-30T05:06:34;12.45;;;5.90;;
25752;SDS011;13600;50.816;4.416;2024-01-30T05:09:00;11.82;;;5.78;;
25752;SDS011;13600;50.816;4.416;2024-01-30T05:11:25;10.07;;;6.00;;
25752;SDS011;13600;50.816;4.416;2024-01-30T05:13:51;12.57;;;5.95;;
25752;SDS011;13600;50.816;4.416;2024-01-30T05:16:17;11.48;;;5.80;;
25752;SDS011;13600;50.816;4.416;2024-01-30T05:18:43;10.00;;;5.90;;
25752;SDS011;13600;50.816;4.416;2024-01-30T05:21:08;11.32;;;5.60;;
25752;SDS011;13600;50.816;4.416;2024-01-30T05:23:35;11.27;;;5.32;;
25752;SDS011;13600;50.816;4.416;2024-01-30T05:26:01;11.90;;;5.63;;
25752;SDS011;13600;50.816;4.416;2024-01-30T05:28:27;10.35;;;5.97;;
25752;SDS011;13600;50.816;4.416;2024-01-30T05:30:57;9.18;;;5.80;;
25752;SDS011;13600;50.816;4.416;2024-01-30T05:33:24;12.23;;;6.07;;
25752;SDS011;13600;50.816;4.416;2024-01-30T05:35:49;14.43;;;6.35;;
25752;SDS011;13600;50.816;4.416;2024-01-30T05:38:15;9.77;;;5.65;;
25752;SDS011;13600;50.816;4.416;2024-01-30T05:40:41;12.48;;;5.80;;
25752;SDS011;13600;50.816;4.416;2024-01-30T05:43:07;12.07;;;5.80;;
25752;SDS011;13600;50.816;4.416;2024-01-30T05:45:33;11.05;;;5.68;;
25752;SDS011;13600;50.816;4.416;2024-01-30T05:48:00;13.00;;;6.13;;
25752;SDS011;13600;50.816;4.416;2024-01-30T05:50:26;13.75;;;6.93;;
25752;SDS011;13600;50.816;4.416;2024-01-30T05:52:52;12.57;;;6.50;;
25752;SDS011;13600;50.816;4.416;2024-01-30T05:55:18;11.18;;;6.13;;
25752;SDS011;13600;50.816;4.416;2024-01-30T05:57:43;12.20;;;5.95;;
25752;SDS011;13600;50.816;4.416;2024-01-30T06:00:09;12.27;;;6.50;;
25752;SDS011;13600;50.816;4.416;2024-01-30T06:02:35;11.75;;;6.20;;
25752;SDS011;13600;50.816;4.416;2024-01-30T06:05:01;10.25;;;6.13;;
25752;SDS011;13600;50.816;4.416;2024-01-30T06:07:26;12.48;;;6.13;;
25752;SDS011;13600;50.816;4.416;2024-01-30T06:09:52;11.55;;;6.15;;
25752;SDS011;13600;50.816;4.416;2024-01-30T06:12:18;13.48;;;6.53;;
25752;SDS011;13600;50.816;4.416;2024-01-30T06:14:43;11.27;;;6.10;;
25752;SDS011;13600;50.816;4.416;2024-01-30T06:17:09;10.15;;;6.10;;
25752;SDS011;13600;50.816;4.416;2024-01-30T06:19:37;12.07;;;6.60;;
25752;SDS011;13600;50.816;4.416;2024-01-30T06:22:04;12.48;;;6.65;;
25752;SDS011;13600;50.816;4.416;2024-01-30T06:24:30;15.30;;;6.18;;
25752;SDS011;13600;50.816;4.416;2024-01-30T06:26:55;10.68;;;5.90;;
25752;SDS011;13600;50.816;4.416;2024-01-30T06:29:21;12.82;;;6.35;;
25752;SDS011;13600;50.816;4.416;2024-01-30T06:31:47;11.50;;;6.47;;
25752;SDS011;13600;50.816;4.416;2024-01-30T06:34:13;14.13;;;6.70;;
25752;SDS011;13600;50.816;4.416;2024-01-30T06:36:39;13.40;;;6.05;;
25752;SDS011;13600;50.816;4.416;2024-01-30T06:39:04;14.38;;;6.50;;
25752;SDS011;13600;50.816;4.416;2024-01-30T06:41:30;13.50;;;6.82;;
25752;SDS011;13600;50.816;4.416;2024-01-30T06:43:56;10.68;;;6.82;;
25752;SDS011;13600;50.816;4.416;2024-01-30T06:46:22;10.75;;;7.03;;
25752;SDS011;13600;50.816;4.416;2024-01-30T06:48:47;10.05;;;6.38;;
25752;SDS011;13600;50.816;4.416;2024-01-30T06:51:13;12.98;;;6.57;;
25752;SDS011;13600;50.816;4.416;2024-01-30T06:53:39;11.20;;;6.85;;
25752;SDS011;13600;50.816;4.416;2024-01-30T06:56:05;9.38;;;6.32;;
25752;SDS011;13600;50.816;4.416;2024-01-30T06:58:31;15.98;;;6.80;;
25752;SDS011;13600;50.816;4.416;2024-01-30T07:00:57;12.30;;;6.90;;
25752;SDS011;13600;50.816;4.416;2024-01-30T07:03:23;10.93;;;6.47;;
25752;SDS011;13600;50.816;4.416;2024-01-30T07:05:49;11.20;;;6.88;;
25752;SDS011;13600;50.816;4.416;2024-01-30T07:08:15;12.07;;;6.43;;
25752;SDS011;13600;50.816;4.416;2024-01-30T07:10:42;11.20;;;6.63;;
25752;SDS011;13600;50.816;4.416;2024-01-30T07:13:08;12.52;;;7.50;;
25752;SDS011;13600;50.816;4.416;2024-01-30T07:15:35;11.35;;;6.65;;
25752;SDS011;13600;50.816;4.416;2024-01-30T07:18:01;16.50;;;6.60;;
25752;SDS011;13600;50.816;4.416;2024-01-30T07:20:27;13.85;;;6.22;;
25752;SDS011;13600;50.816;4.416;2024-01-30T07:22:55;12.13;;;6.47;;
25752;SDS011;13600;50.816;4.416;2024-01-30T07:25:21;13.77;;;7.25;;
25752;SDS011;13600;50.816;4.416;2024-01-30T07:27:51;17.45;;;6.60;;
25752;SDS011;13600;50.816;4.416;2024-01-30T07:30:17;13.60;;;5.97;;
25752;SDS011;13600;50.816;4.416;2024-01-30T07:32:43;17.75;;;6.68;;
25752;SDS011;13600;50.816;4.416;2024-01-30T07:35:09;13.93;;;6.47;;
25752;SDS011;13600;50.816;4.416;2024-01-30T07:37:36;14.70;;;6.85;;
25752;SDS011;13600;50.816;4.416;2024-01-30T07:40:02;14.18;;;6.68;;
25752;SDS011;13600;50.816;4.416;2024-01-30T07:42:28;14.82;;;7.35;;
25752;SDS011;13600;50.816;4.416;2024-01-30T07:44:54;11.57;;;6.93;;
25752;SDS011;13600;50.816;4.416;2024-01-30T07:47:20;12.50;;;6.43;;
25752;SDS011;13600;50.816;4.416;2024-01-30T07:49:46;15.68;;;7.07;;
25752;SDS011;13600;50.816;4.416;2024-01-30T07:52:12;12.20;;;6.35;;
25752;SDS011;13600;50.816;4.416;2024-01-30T07:54:47;18.85;;;7.05;;
25752;SDS011;13600;50.816;4.416;2024-01-30T07:57:13;13.18;;;6.70;;
25752;SDS011;13600;50.816;4.416;2024-01-30T07:59:39;18.85;;;7.03;;
25752;SDS011;13600;50.816;4.416;2024-01-30T08:02:07;17.60;;;7.13;;
25752;SDS011;13600;50.816;4.416;2024-01-30T08:04:33;16.15;;;6.97;;
25752;SDS011;13600;50.816;4.416;2024-01-30T08:07:00;16.50;;;7.28;;
25752;SDS011;13600;50.816;4.416;2024-01-30T08:09:26;14.85;;;6.70;;
25752;SDS011;13600;50.816;4.416;2024-01-30T08:11:52;12.90;;;6.63;;
25752;SDS011;13600;50.816;4.416;2024-01-30T08:14:17;12.98;;;6.97;;
25752;SDS011;13600;50.816;4.416;2024-01-30T08:16:43;16.02;;;7.25;;
25752;SDS011;13600;50.816;4.416;2024-01-30T08:19:09;12.65;;;6.60;;
25752;SDS011;13600;50.816;4.416;2024-01-30T08:21:34;13.63;;;7.30;;
25752;SDS011;13600;50.816;4.416;2024-01-30T08:24:04;20.15;;;7.45;;
25752;SDS011;13600;50.816;4.416;2024-01-30T08:26:31;18.83;;;7.50;;
25752;SDS011;13600;50.816;4.416;2024-01-30T08:28:57;13.85;;;7.07;;
25752;SDS011;13600;50.816;4.416;2024-01-30T08:31:22;17.20;;;7.35;;
25752;SDS011;13600;50.816;4.416;2024-01-30T08:33:48;14.23;;;7.28;;
25752;SDS011;13600;50.816;4.416;2024-01-30T08:36:15;12.77;;;7.43;;
25752;SDS011;13600;50.816;4.416;2024-01-30T08:38:41;16.77;;;8.40;;
25752;SDS011;13600;50.816;4.416;2024-01-30T08:41:07;18.08;;;9.02;;
25752;SDS011;13600;50.816;4.416;2024-01-30T08:43:34;21.75;;;7.80;;
25752;SDS011;13600;50.816;4.416;2024-01-30T08:46:00;15.52;;;8.30;;
25752;SDS011;13600;50.816;4.416;2024-01-30T08:48:26;17.17;;;7.68;;
25752;SDS011;13600;50.816;4.416;2024-01-30T08:50:51;15.48;;;7.63;;
25752;SDS011;13600;50.816;4.416;2024-01-30T08:53:17;14.55;;;7.90;;
25752;SDS011;13600;50.816;4.416;2024-01-30T08:55:43;17.13;;;7.63;;
25752;SDS011;13600;50.816;4.416;2024-01-30T08:58:09;16.98;;;7.53;;
25752;SDS011;13600;50.816;4.416;2024-01-30T09:00:36;18.38;;;8.27;;
25752;SDS011;13600;50.816;4.416;2024-01-30T09:03:02;13.82;;;7.82;;
25752;SDS011;13600;50.816;4.416;2024-01-30T09:05:28;16.55;;;7.93;;
25752;SDS011;13600;50.816;4.416;2024-01-30T09:07:53;17.23;;;7.97;;
25752;SDS011;13600;50.816;4.416;2024-01-30T09:10:19;18.63;;;7.82;;
25752;SDS011;13600;50.816;4.416;2024-01-30T09:12:45;12.55;;;6.97;;
25752;SDS011;13600;50.816;4.416;2024-01-30T09:15:11;14.70;;;7.68;;
25752;SDS011;13600;50.816;4.416;2024-01-30T09:17:37;17.02;;;7.32;;
25752;SDS011;13600;50.816;4.416;2024-01-30T09:20:03;17.05;;;7.95;;
25752;SDS011;13600;50.816;4.416;2024-01-30T09:22:29;15.60;;;7.88;;
25752;SDS011;13600;50.816;4.416;2024-01-30T09:24:55;17.95;;;9.02;;
25752;SDS011;13600;50.816;4.416;2024-01-30T09:27:20;21.58;;;8.07;;
25752;SDS011;13600;50.816;4.416;2024-01-30T09:29:46;17.40;;;8.65;;
25752;SDS011;13600;50.816;4.416;2024-01-30T09:32:12;18.02;;;8.18;;
25752;SDS011;13600;50.816;4.416;2024-01-30T09:34:37;20.38;;;8.13;;
25752;SDS011;13600;50.816;4.416;2024-01-30T09:37:05;22.30;;;9.13;;
25752;SDS011;13600;50.816;4.416;2024-01-30T09:39:30;18.48;;;9.18;;
25752;SDS011;13600;50.816;4.416;2024-01-30T09:44:28;20.00;;;9.13;;
25752;SDS011;13600;50.816;4.416;2024-01-30T09:46:55;21.58;;;9.48;;
25752;SDS011;13600;50.816;4.416;2024-01-30T09:49:28;25.73;;;9.98;;
25752;SDS011;13600;50.816;4.416;2024-01-30T09:51:56;19.67;;;9.88;;
25752;SDS011;13600;50.816;4.416;2024-01-30T09:54:23;21.25;;;9.45;;
25752;SDS011;13600;50.816;4.416;2024-01-30T09:56:48;21.08;;;10.10;;
25752;SDS011;13600;50.816;4.416;2024-01-30T09:59:14;15.88;;;9.15;;
25752;SDS011;13600;50.816;4.416;2024-01-30T10:01:40;28.70;;;12.10;;
25752;SDS011;13600;50.816;4.416;2024-01-30T10:04:07;22.83;;;10.75;;
25752;SDS011;13600;50.816;4.416;2024-01-30T10:06:33;21.50;;;10.40;;
25752;SDS011;13600;50.816;4.416;2024-01-30T10:08:59;24.70;;;11.55;;
25752;SDS011;13600;50.816;4.416;2024-01-30T10:11:25;23.33;;;11.15;;
25752;SDS011;13600;50.816;4.416;2024-01-30T10:13:50;24.35;;;11.35;;
25752;SDS011;13600;50.816;4.416;2024-01-30T10:16:16;21.13;;;10.73;;
25752;SDS011;13600;50.816;4.416;2024-01-30T10:18:42;25.42;;;11.15;;
25752;SDS011;13600;50.816;4.416;2024-01-30T10:21:08;23.70;;;10.57;;
25752;SDS011;13600;50.816;4.416;2024-01-30T10:23:34;20.33;;;10.23;;
25752;SDS011;13600;50.816;4.416;2024-01-30T10:26:02;21.30;;;10.20;;
25752;SDS011;13600;50.816;4.416;2024-01-30T10:28:30;22.92;;;10.90;;
25752;SDS011;13600;50.816;4.416;2024-01-30T10:30:59;25.05;;;10.75;;
25752;SDS011;13600;50.816;4.416;2024-01-30T10:33:25;23.25;;;10.70;;
25752;SDS011;13600;50.816;4.416;2024-01-30T10:36:01;21.08;;;9.88;;
25752;SDS011;13600;50.816;4.416;2024-01-30T10:38:28;22.30;;;10.18;;
25752;SDS011;13600;50.816;4.416;2024-01-30T10:40:56;26.75;;;10.43;;
25752;SDS011;13600;50.816;4.416;2024-01-30T10:43:22;19.08;;;9.63;;
25752;SDS011;13600;50.816;4.416;2024-01-30T10:45:55;22.35;;;9.52;;
25752;SDS011;13600;50.816;4.416;2024-01-30T10:48:29;20.65;;;8.63;;
25752;SDS011;13600;50.816;4.416;2024-01-30T10:50:57;29.25;;;8.60;;
25752;SDS011;13600;50.816;4.416;2024-01-30T10:53:27;23.05;;;8.05;;
25752;SDS011;13600;50.816;4.416;2024-01-30T10:55:53;20.92;;;8.65;;
25752;SDS011;13600;50.816;4.416;2024-01-30T10:58:20;20.23;;;7.90;;
25752;SDS011;13600;50.816;4.416;2024-01-30T11:00:46;17.23;;;7.50;;
25752;SDS011;13600;50.816;4.416;2024-01-30T11:03:13;16.45;;;7.75;;
25752;SDS011;13600;50.816;4.416;2024-01-30T11:05:43;19.08;;;7.88;;
25752;SDS011;13600;50.816;4.416;2024-01-30T11:08:14;17.20;;;6.55;;
25752;SDS011;13600;50.816;4.416;2024-01-30T11:10:47;19.15;;;7.15;;
25752;SDS011;13600;50.816;4.416;2024-01-30T11:13:13;17.15;;;6.60;;
25752;SDS011;13600;50.816;4.416;2024-01-30T11:15:39;15.50;;;7.10;;
25752;SDS011;13600;50.816;4.416;2024-01-30T11:18:05;17.05;;;6.30;;
25752;SDS011;13600;50.816;4.416;2024-01-30T11:20:31;17.55;;;5.82;;
25752;SDS011;13600;50.816;4.416;2024-01-30T11:22:58;18.05;;;6.55;;
25752;SDS011;13600;50.816;4.416;2024-01-30T11:25:27;12.63;;;5.55;;
25752;SDS011;13600;50.816;4.416;2024-01-30T11:27:53;13.18;;;5.00;;
25752;SDS011;13600;50.816;4.416;2024-01-30T11:30:27;16.05;;;4.25;;
25752;SDS011;13600;50.816;4.416;2024-01-30T11:35:35;11.52;;;4.10;;
25752;SDS011;13600;50.816;4.416;2024-01-30T11:38:12;13.52;;;3.42;;
25752;SDS011;13600;50.816;4.416;2024-01-30T11:40:39;9.32;;;2.30;;
25752;SDS011;13600;50.816;4.416;2024-01-30T11:43:06;7.57;;;2.33;;
25752;SDS011;13600;50.816;4.416;2024-01-30T11:45:34;5.55;;;2.00;;
25752;SDS011;13600;50.816;4.416;2024-01-30T11:48:01;4.47;;;1.77;;
25752;SDS011;13600;50.816;4.416;2024-01-30T11:50:30;5.90;;;1.50;;
25752;SDS011;13600;50.816;4.416;2024-01-30T11:52:56;6.20;;;1.00;;
25752;SDS011;13600;50.816;4.416;2024-01-30T11:55:23;3.65;;;0.90;;
25752;SDS011;13600;50.816;4.416;2024-01-30T11:57:49;3.03;;;1.00;;
25752;SDS011;13600;50.816;4.416;2024-01-30T12:00:16;3.92;;;0.70;;
25752;SDS011;13600;50.816;4.416;2024-01-30T12:02:43;7.05;;;0.95;;
25752;SDS011;13600;50.816;4.416;2024-01-30T12:05:13;4.78;;;0.90;;
25752;SDS011;13600;50.816;4.416;2024-01-30T12:07:39;5.97;;;0.70;;
25752;SDS011;13600;50.816;4.416;2024-01-30T12:10:05;4.93;;;0.50;;
25752;SDS011;13600;50.816;4.416;2024-01-30T12:12:32;4.28;;;0.60;;
25752;SDS011;13600;50.816;4.416;2024-01-30T12:14:58;3.40;;;0.88;;
25752;SDS011;13600;50.816;4.416;2024-01-30T12:17:28;3.28;;;0.70;;
25752;SDS011;13600;50.816;4.416;2024-01-30T12:22:37;3.60;;;0.77;;
25752;SDS011;13600;50.816;4.416;2024-01-30T12:25:24;4.60;;;0.80;;
25752;SDS011;13600;50.816;4.416;2024-01-30T12:27:50;4.32;;;0.82;;
25752;SDS011;13600;50.816;4.416;2024-01-30T12:30:16;2.83;;;0.80;;
25752;SDS011;13600;50.816;4.416;2024-01-30T12:32:45;3.92;;;0.80;;
25752;SDS011;13600;50.816;4.416;2024-01-30T12:35:13;5.75;;;0.82;;
25752;SDS011;13600;50.816;4.416;2024-01-30T12:37:40;3.20;;;0.70;;
25752;SDS011;13600;50.816;4.416;2024-01-30T12:40:09;2.85;;;0.40;;
25752;SDS011;13600;50.816;4.416;2024-01-30T12:42:38;3.05;;;0.50;;
25752;SDS011;13600;50.816;4.416;2024-01-30T12:45:04;2.35;;;0.40;;
25752;SDS011;13600;50.816;4.416;2024-01-30T12:47:30;6.22;;;0.82;;
25752;SDS011;13600;50.816;4.416;2024-01-30T12:49:57;4.10;;;0.60;;
25752;SDS011;13600;50.816;4.416;2024-01-30T12:52:23;3.40;;;0.60;;
25752;SDS011;13600;50.816;4.416;2024-01-30T12:54:49;3.05;;;0.50;;
25752;SDS011;13600;50.816;4.416;2024-01-30T12:57:15;8.45;;;0.90;;
25752;SDS011;13600;50.816;4.416;2024-01-30T12:59:41;3.35;;;0.55;;
25752;SDS011;13600;50.816;4.416;2024-01-30T13:02:08;4.38;;;0.68;;
25752;SDS011;13600;50.816;4.416;2024-01-30T13:04:34;6.13;;;0.95;;
25752;SDS011;13600;50.816;4.416;2024-01-30T13:07:01;3.83;;;0.82;;
25752;SDS011;13600;50.816;4.416;2024-01-30T13:09:26;4.63;;;0.77;;
25752;SDS011;13600;50.816;4.416;2024-01-30T13:11:52;3.90;;;0.60;;
25752;SDS011;13600;50.816;4.416;2024-01-30T13:14:18;5.72;;;0.60;;
25752;SDS011;13600;50.816;4.416;2024-01-30T13:16:44;4.22;;;0.70;;
25752;SDS011;13600;50.816;4.416;2024-01-30T13:19:10;3.15;;;0.80;;
25752;SDS011;13600;50.816;4.416;2024-01-30T13:21:35;5.15;;;0.70;;
25752;SDS011;13600;50.816;4.416;2024-01-30T13:24:01;4.72;;;0.77;;
25752;SDS011;13600;50.816;4.416;2024-01-30T13:26:28;3.42;;;0.50;;
25752;SDS011;13600;50.816;4.416;2024-01-30T13:28:53;4.15;;;0.70;;
25752;SDS011;13600;50.816;4.416;2024-01-30T13:31:19;6.90;;;0.88;;
25752;SDS011;13600;50.816;4.416;2024-01-30T13:33:46;7.90;;;0.93;;
25752;SDS011;13600;50.816;4.416;2024-01-30T13:36:11;7.20;;;1.10;;
25752;SDS011;13600;50.816;4.416;2024-01-30T13:38:37;7.47;;;1.20;;
25752;SDS011;13600;50.816;4.416;2024-01-30T13:41:04;7.43;;;1.02;;
25752;SDS011;13600;50.816;4.416;2024-01-30T13:43:29;5.95;;;1.15;;
25752;SDS011;13600;50.816;4.416;2024-01-30T13:45:55;9.23;;;1.25;;
25752;SDS011;13600;50.816;4.416;2024-01-30T13:48:21;6.85;;;1.05;;
25752;SDS011;13600;50.816;4.416;2024-01-30T13:50:46;5.57;;;1.00;;
25752;SDS011;13600;50.816;4.416;2024-01-30T13:53:13;6.53;;;1.10;;
25752;SDS011;13600;50.816;4.416;2024-01-30T13:55:40;12.70;;;1.25;;
25752;SDS011;13600;50.816;4.416;2024-01-30T13:58:06;7.55;;;1.15;;
25752;SDS011;13600;50.816;4.416;2024-01-30T14:00:32;7.22;;;1.10;;
25752;SDS011;13600;50.816;4.416;2024-01-30T14:02:59;10.93;;;1.17;;
25752;SDS011;13600;50.816;4.416;2024-01-30T14:05:25;6.32;;;1.42;;
25752;SDS011;13600;50.816;4.416;2024-01-30T14:07:52;9.20;;;1.27;;
25752;SDS011;13600;50.816;4.416;2024-01-30T14:10:18;5.18;;;1.00;;
25752;SDS011;13600;50.816;4.416;2024-01-30T14:12:44;4.88;;;1.00;;
25752;SDS011;13600;50.816;4.416;2024-01-30T14:15:10;4.78;;;0.93;;
25752;SDS011;13600;50.816;4.416;2024-01-30T14:17:36;3.30;;;0.65;;
25752;SDS011;13600;50.816;4.416;2024-01-30T14:20:05;8.10;;;1.08;;
25752;SDS011;13600;50.816;4.416;2024-01-30T14:22:32;7.95;;;1.10;;
25752;SDS011;13600;50.816;4.416;2024-01-30T14:24:58;5.53;;;1.00;;
25752;SDS011;13600;50.816;4.416;2024-01-30T14:27:25;5.70;;;0.68;;
25752;SDS011;13600;50.816;4.416;2024-01-30T14:29:51;7.05;;;0.80;;
25752;SDS011;13600;50.816;4.416;2024-01-30T14:32:16;3.15;;;0.75;;
25752;SDS011;13600;50.816;4.416;2024-01-30T14:34:42;3.55;;;0.70;;
25752;SDS011;13600;50.816;4.416;2024-01-30T14:37:08;3.70;;;0.70;;
25752;SDS011;13600;50.816;4.416;2024-01-30T14:39:33;5.90;;;0.98;;
25752;SDS011;13600;50.816;4.416;2024-01-30T14:42:02;4.03;;;0.70;;
25752;SDS011;13600;50.816;4.416;2024-01-30T14:44:28;6.93;;;1.10;;